sensor_id;sensor_type;location;lat;lon;timestamp;temperature;humidity
75372;HTU21D;63956;52.006;5.878;2022-10-31T00:01:41;15.82;69.00
75372;HTU21D;63956;52.006;5.878;2022-10-31T00:04:10;15.78;69.26
75372;HTU21D;63956;52.006;5.878;2022-10-31T00:06:39;15.84;68.88
75372;HTU21D;63956;52.006;5.878;2022-10-31T00:09:09;15.77;69.03
75372;HTU21D;63956;52.006;5.878;2022-10-31T00:11:38;15.73;69.20
75372;HTU21D;63956;52.006;5.878;2022-10-31T00:14:10;15.73;69.15
75372;HTU21D;63956;52.006;5.878;2022-10-31T00:16:39;15.70;69.08
75372;HTU21D;63956;52.006;5.878;2022-10-31T00:19:09;15.67;69.08
75372;HTU21D;63956;52.006;5.878;2022-10-31T00:21:38;15.67;69.02
75372;HTU21D;63956;52.006;5.878;2022-10-31T00:24:07;15.66;69.07
75372;HTU21D;63956;52.006;5.878;2022-10-31T00:26:36;15.65;69.06
75372;HTU21D;63956;52.006;5.878;2022-10-31T00:29:06;15.65;69.13
75372;HTU21D;63956;52.006;5.878;2022-10-31T00:31:37;15.68;69.03
75372;HTU21D;63956;52.006;5.878;2022-10-31T00:34:06;15.68;69.03
75372;HTU21D;63956;52.006;5.878;2022-10-31T00:36:36;15.68;69.17
75372;HTU21D;63956;52.006;5.878;2022-10-31T00:39:05;15.70;69.13
75372;HTU21D;63956;52.006;5.878;2022-10-31T00:41:34;15.71;69.58
75372;HTU21D;63956;52.006;5.878;2022-10-31T00:44:07;15.72;69.33
75372;HTU21D;63956;52.006;5.878;2022-10-31T00:46:39;15.73;69.52
75372;HTU21D;63956;52.006;5.878;2022-10-31T00:49:08;15.74;69.49
75372;HTU21D;63956;52.006;5.878;2022-10-31T00:51:38;15.75;69.56
75372;HTU21D;63956;52.006;5.878;2022-10-31T00:54:07;15.76;69.49
75372;HTU21D;63956;52.006;5.878;2022-10-31T00:56:37;15.80;69.55
75372;HTU21D;63956;52.006;5.878;2022-10-31T00:59:06;15.82;69.49
75372;HTU21D;63956;52.006;5.878;2022-10-31T01:01:35;15.82;69.36
75372;HTU21D;63956;52.006;5.878;2022-10-31T01:04:07;15.84;69.45
75372;HTU21D;63956;52.006;5.878;2022-10-31T01:06:36;15.85;69.33
75372;HTU21D;63956;52.006;5.878;2022-10-31T01:09:05;15.85;69.37
75372;HTU21D;63956;52.006;5.878;2022-10-31T01:11:34;15.87;69.22
75372;HTU21D;63956;52.006;5.878;2022-10-31T01:14:07;15.88;69.16
75372;HTU21D;63956;52.006;5.878;2022-10-31T01:16:37;15.88;69.22
75372;HTU21D;63956;52.006;5.878;2022-10-31T01:19:08;15.90;69.13
75372;HTU21D;63956;52.006;5.878;2022-10-31T01:21:38;15.88;69.13
75372;HTU21D;63956;52.006;5.878;2022-10-31T01:24:07;15.86;69.18
75372;HTU21D;63956;52.006;5.878;2022-10-31T01:26:38;15.87;69.16
75372;HTU21D;63956;52.006;5.878;2022-10-31T01:29:08;15.88;69.13
75372;HTU21D;63956;52.006;5.878;2022-10-31T01:31:39;15.83;69.29
75372;HTU21D;63956;52.006;5.878;2022-10-31T01:34:13;15.84;69.29
75372;HTU21D;63956;52.006;5.878;2022-10-31T01:36:43;15.82;69.20
75372;HTU21D;63956;52.006;5.878;2022-10-31T01:39:18;15.80;69.07
75372;HTU21D;63956;52.006;5.878;2022-10-31T01:41:50;15.77;69.12
75372;HTU21D;63956;52.006;5.878;2022-10-31T01:47:22;15.68;69.12
75372;HTU21D;63956;52.006;5.878;2022-10-31T01:49:57;15.63;69.18
75372;HTU21D;63956;52.006;5.878;2022-10-31T01:52:31;15.58;69.23
75372;HTU21D;63956;52.006;5.878;2022-10-31T01:55:04;15.54;69.26
75372;HTU21D;63956;52.006;5.878;2022-10-31T01:57:35;15.49;69.26
75372;HTU21D;63956;52.006;5.878;2022-10-31T02:00:10;15.48;69.14
75372;HTU21D;63956;52.006;5.878;2022-10-31T02:02:40;15.48;69.13
75372;HTU21D;63956;52.006;5.878;2022-10-31T02:05:17;15.47;69.11
75372;HTU21D;63956;52.006;5.878;2022-10-31T02:07:53;15.44;69.09
75372;HTU21D;63956;52.006;5.878;2022-10-31T02:10:29;15.41;69.04
75372;HTU21D;63956;52.006;5.878;2022-10-31T02:13:02;15.38;69.08
75372;HTU21D;63956;52.006;5.878;2022-10-31T02:15:36;15.34;69.07
75372;HTU21D;63956;52.006;5.878;2022-10-31T02:18:06;15.30;68.99
75372;HTU21D;63956;52.006;5.878;2022-10-31T02:20:45;15.26;69.01
75372;HTU21D;63956;52.006;5.878;2022-10-31T02:26:37;15.17;69.10
75372;HTU21D;63956;52.006;5.878;2022-10-31T02:32:15;15.14;69.09
75372;HTU21D;63956;52.006;5.878;2022-10-31T02:34:54;15.11;69.22
75372;HTU21D;63956;52.006;5.878;2022-10-31T02:37:32;15.08;69.13
75372;HTU21D;63956;52.006;5.878;2022-10-31T02:40:10;15.03;69.11
75372;HTU21D;63956;52.006;5.878;2022-10-31T02:43:05;15.00;69.26
75372;HTU21D;63956;52.006;5.878;2022-10-31T02:45:40;14.96;69.32
75372;HTU21D;63956;52.006;5.878;2022-10-31T02:48:19;14.94;69.29
75372;HTU21D;63956;52.006;5.878;2022-10-31T02:50:52;14.88;69.35
75372;HTU21D;63956;52.006;5.878;2022-10-31T02:53:24;14.85;69.42
75372;HTU21D;63956;52.006;5.878;2022-10-31T02:56:05;14.83;69.36
75372;HTU21D;63956;52.006;5.878;2022-10-31T02:58:37;14.79;69.42
75372;HTU21D;63956;52.006;5.878;2022-10-31T03:01:33;14.77;69.36
75372;HTU21D;63956;52.006;5.878;2022-10-31T03:04:19;14.71;69.36
75372;HTU21D;63956;52.006;5.878;2022-10-31T03:06:57;14.66;69.50
75372;HTU21D;63956;52.006;5.878;2022-10-31T03:09:34;14.62;69.41
75372;HTU21D;63956;52.006;5.878;2022-10-31T03:12:10;14.59;69.70
75372;HTU21D;63956;52.006;5.878;2022-10-31T03:14:43;14.53;69.68
75372;HTU21D;63956;52.006;5.878;2022-10-31T03:17:22;14.50;69.65
75372;HTU21D;63956;52.006;5.878;2022-10-31T03:19:58;14.45;69.73
75372;HTU21D;63956;52.006;5.878;2022-10-31T03:22:31;14.42;69.75
75372;HTU21D;63956;52.006;5.878;2022-10-31T03:25:03;14.41;69.84
75372;HTU21D;63956;52.006;5.878;2022-10-31T03:27:35;14.38;69.81
75372;HTU21D;63956;52.006;5.878;2022-10-31T03:30:07;14.37;69.75
75372;HTU21D;63956;52.006;5.878;2022-10-31T03:32:58;14.33;69.84
75372;HTU21D;63956;52.006;5.878;2022-10-31T03:35:33;14.30;69.92
75372;HTU21D;63956;52.006;5.878;2022-10-31T03:38:04;14.25;69.88
75372;HTU21D;63956;52.006;5.878;2022-10-31T03:40:36;14.25;69.94
75372;HTU21D;63956;52.006;5.878;2022-10-31T03:43:11;14.25;69.97
75372;HTU21D;63956;52.006;5.878;2022-10-31T03:45:43;14.22;69.87
75372;HTU21D;63956;52.006;5.878;2022-10-31T03:48:13;14.20;69.94
75372;HTU21D;63956;52.006;5.878;2022-10-31T03:50:49;14.18;69.90
75372;HTU21D;63956;52.006;5.878;2022-10-31T03:53:24;14.18;69.85
75372;HTU21D;63956;52.006;5.878;2022-10-31T03:55:59;14.15;69.82
75372;HTU21D;63956;52.006;5.878;2022-10-31T03:58:33;14.11;69.78
75372;HTU21D;63956;52.006;5.878;2022-10-31T04:01:06;14.09;69.74
75372;HTU21D;63956;52.006;5.878;2022-10-31T04:03:40;14.05;69.71
75372;HTU21D;63956;52.006;5.878;2022-10-31T04:06:14;14.04;69.71
75372;HTU21D;63956;52.006;5.878;2022-10-31T04:08:49;13.99;69.62
75372;HTU21D;63956;52.006;5.878;2022-10-31T04:11:23;13.97;69.58
75372;HTU21D;63956;52.006;5.878;2022-10-31T04:14:16;13.95;69.53
75372;HTU21D;63956;52.006;5.878;2022-10-31T04:16:45;13.92;69.54
75372;HTU21D;63956;52.006;5.878;2022-10-31T04:19:16;13.89;69.62
75372;HTU21D;63956;52.006;5.878;2022-10-31T04:21:48;13.86;69.61
75372;HTU21D;63956;52.006;5.878;2022-10-31T04:24:17;13.85;69.55
75372;HTU21D;63956;52.006;5.878;2022-10-31T04:26:46;13.84;69.55
75372;HTU21D;63956;52.006;5.878;2022-10-31T04:29:15;13.83;69.58
75372;HTU21D;63956;52.006;5.878;2022-10-31T04:31:45;13.83;69.53
75372;HTU21D;63956;52.006;5.878;2022-10-31T04:34:14;13.83;69.55
75372;HTU21D;63956;52.006;5.878;2022-10-31T04:36:43;13.82;69.46
75372;HTU21D;63956;52.006;5.878;2022-10-31T04:39:17;13.81;69.55
75372;HTU21D;63956;52.006;5.878;2022-10-31T04:41:56;13.77;69.55
75372;HTU21D;63956;52.006;5.878;2022-10-31T04:44:25;13.79;69.49
75372;HTU21D;63956;52.006;5.878;2022-10-31T04:46:55;13.74;69.61
75372;HTU21D;63956;52.006;5.878;2022-10-31T04:49:24;13.73;69.71
75372;HTU21D;63956;52.006;5.878;2022-10-31T04:51:53;13.74;69.63
75372;HTU21D;63956;52.006;5.878;2022-10-31T04:54:25;13.80;69.44
75372;HTU21D;63956;52.006;5.878;2022-10-31T04:57:14;13.75;69.51
75372;HTU21D;63956;52.006;5.878;2022-10-31T04:59:43;13.73;69.64
75372;HTU21D;63956;52.006;5.878;2022-10-31T05:02:12;13.75;69.49
75372;HTU21D;63956;52.006;5.878;2022-10-31T05:04:51;13.69;69.66
75372;HTU21D;63956;52.006;5.878;2022-10-31T05:07:20;13.66;69.81
75372;HTU21D;63956;52.006;5.878;2022-10-31T05:09:52;13.66;69.74
75372;HTU21D;63956;52.006;5.878;2022-10-31T05:12:21;13.64;69.80
75372;HTU21D;63956;52.006;5.878;2022-10-31T05:15:17;13.66;69.78
75372;HTU21D;63956;52.006;5.878;2022-10-31T05:18:06;13.64;69.73
75372;HTU21D;63956;52.006;5.878;2022-10-31T05:20:56;13.63;69.73
75372;HTU21D;63956;52.006;5.878;2022-10-31T05:23:35;13.63;69.87
75372;HTU21D;63956;52.006;5.878;2022-10-31T05:26:09;13.66;69.85
75372;HTU21D;63956;52.006;5.878;2022-10-31T05:28:39;13.66;69.89
75372;HTU21D;63956;52.006;5.878;2022-10-31T05:31:08;13.66;69.91
75372;HTU21D;63956;52.006;5.878;2022-10-31T05:33:37;13.70;69.81
75372;HTU21D;63956;52.006;5.878;2022-10-31T05:36:24;13.75;69.84
75372;HTU21D;63956;52.006;5.878;2022-10-31T05:39:09;13.77;69.83
75372;HTU21D;63956;52.006;5.878;2022-10-31T05:41:44;13.80;69.91
75372;HTU21D;63956;52.006;5.878;2022-10-31T05:44:19;13.82;69.92
75372;HTU21D;63956;52.006;5.878;2022-10-31T05:47:11;13.85;69.78
75372;HTU21D;63956;52.006;5.878;2022-10-31T05:49:55;13.88;69.86
75372;HTU21D;63956;52.006;5.878;2022-10-31T05:53:00;13.92;69.87
75372;HTU21D;63956;52.006;5.878;2022-10-31T05:55:35;13.96;69.71
75372;HTU21D;63956;52.006;5.878;2022-10-31T05:58:12;13.97;69.76
75372;HTU21D;63956;52.006;5.878;2022-10-31T06:00:59;13.99;69.80
75372;HTU21D;63956;52.006;5.878;2022-10-31T06:03:28;14.01;69.75
75372;HTU21D;63956;52.006;5.878;2022-10-31T06:06:00;14.05;70.17
75372;HTU21D;63956;52.006;5.878;2022-10-31T06:08:33;14.03;70.80
75372;HTU21D;63956;52.006;5.878;2022-10-31T06:11:05;14.00;71.74
75372;HTU21D;63956;52.006;5.878;2022-10-31T06:13:57;14.04;72.13
75372;HTU21D;63956;52.006;5.878;2022-10-31T06:16:34;14.04;71.83
75372;HTU21D;63956;52.006;5.878;2022-10-31T06:19:23;14.06;72.40
75372;HTU21D;63956;52.006;5.878;2022-10-31T06:21:52;14.08;72.43
75372;HTU21D;63956;52.006;5.878;2022-10-31T06:24:22;14.11;71.83
75372;HTU21D;63956;52.006;5.878;2022-10-31T06:26:53;14.14;72.07
75372;HTU21D;63956;52.006;5.878;2022-10-31T06:29:25;14.15;71.66
75372;HTU21D;63956;52.006;5.878;2022-10-31T06:32:06;14.15;71.51
75372;HTU21D;63956;52.006;5.878;2022-10-31T06:34:40;14.18;71.42
75372;HTU21D;63956;52.006;5.878;2022-10-31T06:37:10;14.14;71.45
75372;HTU21D;63956;52.006;5.878;2022-10-31T06:39:43;14.17;71.38
75372;HTU21D;63956;52.006;5.878;2022-10-31T06:42:15;14.17;71.29
75372;HTU21D;63956;52.006;5.878;2022-10-31T06:44:48;14.19;71.25
75372;HTU21D;63956;52.006;5.878;2022-10-31T06:47:35;14.17;71.32
75372;HTU21D;63956;52.006;5.878;2022-10-31T06:50:08;14.17;71.35
75372;HTU21D;63956;52.006;5.878;2022-10-31T06:52:37;14.18;71.59
75372;HTU21D;63956;52.006;5.878;2022-10-31T06:55:08;14.17;71.35
75372;HTU21D;63956;52.006;5.878;2022-10-31T06:57:37;14.18;71.31
75372;HTU21D;63956;52.006;5.878;2022-10-31T07:00:11;14.20;71.23
75372;HTU21D;63956;52.006;5.878;2022-10-31T07:02:55;14.22;71.03
75372;HTU21D;63956;52.006;5.878;2022-10-31T07:05:24;14.21;71.00
75372;HTU21D;63956;52.006;5.878;2022-10-31T07:07:54;14.23;70.96
75372;HTU21D;63956;52.006;5.878;2022-10-31T07:10:24;14.22;70.97
75372;HTU21D;63956;52.006;5.878;2022-10-31T07:13:01;14.25;70.94
75372;HTU21D;63956;52.006;5.878;2022-10-31T07:15:37;14.26;70.81
75372;HTU21D;63956;52.006;5.878;2022-10-31T07:18:08;14.25;70.77
75372;HTU21D;63956;52.006;5.878;2022-10-31T07:20:38;14.28;70.79
75372;HTU21D;63956;52.006;5.878;2022-10-31T07:23:08;14.28;70.71
75372;HTU21D;63956;52.006;5.878;2022-10-31T07:25:39;14.30;70.72
75372;HTU21D;63956;52.006;5.878;2022-10-31T07:28:14;14.35;71.09
75372;HTU21D;63956;52.006;5.878;2022-10-31T07:30:52;14.39;71.42
75372;HTU21D;63956;52.006;5.878;2022-10-31T07:33:22;14.42;72.09
75372;HTU21D;63956;52.006;5.878;2022-10-31T07:36:27;14.52;71.74
75372;HTU21D;63956;52.006;5.878;2022-10-31T07:39:01;14.55;71.83
75372;HTU21D;63956;52.006;5.878;2022-10-31T07:41:33;14.62;71.50
75372;HTU21D;63956;52.006;5.878;2022-10-31T07:44:02;14.64;71.76
75372;HTU21D;63956;52.006;5.878;2022-10-31T07:46:54;14.70;71.78
75372;HTU21D;63956;52.006;5.878;2022-10-31T07:49:28;14.74;71.74
75372;HTU21D;63956;52.006;5.878;2022-10-31T07:52:16;14.80;71.54
75372;HTU21D;63956;52.006;5.878;2022-10-31T07:55:04;14.95;71.00
75372;HTU21D;63956;52.006;5.878;2022-10-31T07:57:35;14.95;71.33
75372;HTU21D;63956;52.006;5.878;2022-10-31T08:00:08;15.01;71.54
75372;HTU21D;63956;52.006;5.878;2022-10-31T08:02:43;15.11;71.60
75372;HTU21D;63956;52.006;5.878;2022-10-31T08:05:33;15.18;71.38
75372;HTU21D;63956;52.006;5.878;2022-10-31T08:08:25;15.23;71.26
75372;HTU21D;63956;52.006;5.878;2022-10-31T08:10:55;15.30;71.26
75372;HTU21D;63956;52.006;5.878;2022-10-31T08:13:25;15.40;71.49
75372;HTU21D;63956;52.006;5.878;2022-10-31T08:15:54;15.51;71.32
75372;HTU21D;63956;52.006;5.878;2022-10-31T08:18:31;15.60;71.19
75372;HTU21D;63956;52.006;5.878;2022-10-31T08:21:04;15.68;71.24
75372;HTU21D;63956;52.006;5.878;2022-10-31T08:23:33;15.71;71.24
75372;HTU21D;63956;52.006;5.878;2022-10-31T08:26:02;15.76;71.20
75372;HTU21D;63956;52.006;5.878;2022-10-31T08:28:32;15.84;71.02
75372;HTU21D;63956;52.006;5.878;2022-10-31T08:31:03;15.89;71.02
75372;HTU21D;63956;52.006;5.878;2022-10-31T08:33:43;15.95;71.00
75372;HTU21D;63956;52.006;5.878;2022-10-31T08:36:18;15.95;70.93
75372;HTU21D;63956;52.006;5.878;2022-10-31T08:39:07;16.00;70.93
75372;HTU21D;63956;52.006;5.878;2022-10-31T08:41:38;16.04;70.77
75372;HTU21D;63956;52.006;5.878;2022-10-31T08:44:11;16.06;71.00
75372;HTU21D;63956;52.006;5.878;2022-10-31T08:46:43;16.12;70.78
75372;HTU21D;63956;52.006;5.878;2022-10-31T08:49:15;16.16;70.72
75372;HTU21D;63956;52.006;5.878;2022-10-31T08:51:47;16.19;70.68
75372;HTU21D;63956;52.006;5.878;2022-10-31T08:54:17;16.27;70.48
75372;HTU21D;63956;52.006;5.878;2022-10-31T08:56:56;16.33;70.07
75372;HTU21D;63956;52.006;5.878;2022-10-31T08:59:35;16.43;70.22
75372;HTU21D;63956;52.006;5.878;2022-10-31T09:02:22;16.52;69.92
75372;HTU21D;63956;52.006;5.878;2022-10-31T09:04:59;16.62;69.78
75372;HTU21D;63956;52.006;5.878;2022-10-31T09:07:29;16.70;69.71
75372;HTU21D;63956;52.006;5.878;2022-10-31T09:09:58;16.74;69.56
75372;HTU21D;63956;52.006;5.878;2022-10-31T09:12:31;16.79;69.45
75372;HTU21D;63956;52.006;5.878;2022-10-31T09:15:41;16.89;69.35
75372;HTU21D;63956;52.006;5.878;2022-10-31T09:18:23;16.95;69.28
75372;HTU21D;63956;52.006;5.878;2022-10-31T09:21:02;17.03;69.13
75372;HTU21D;63956;52.006;5.878;2022-10-31T09:23:31;17.06;68.84
75372;HTU21D;63956;52.006;5.878;2022-10-31T09:26:01;17.11;69.00
75372;HTU21D;63956;52.006;5.878;2022-10-31T09:28:31;17.16;69.03
75372;HTU21D;63956;52.006;5.878;2022-10-31T09:31:06;17.23;68.70
75372;HTU21D;63956;52.006;5.878;2022-10-31T09:33:55;17.30;68.58
75372;HTU21D;63956;52.006;5.878;2022-10-31T09:36:39;17.37;68.46
75372;HTU21D;63956;52.006;5.878;2022-10-31T09:39:20;17.43;68.31
75372;HTU21D;63956;52.006;5.878;2022-10-31T09:42:18;17.51;68.23
75372;HTU21D;63956;52.006;5.878;2022-10-31T09:45:01;17.59;68.23
75372;HTU21D;63956;52.006;5.878;2022-10-31T09:47:43;17.65;68.17
75372;HTU21D;63956;52.006;5.878;2022-10-31T09:50:46;17.67;67.90
75372;HTU21D;63956;52.006;5.878;2022-10-31T09:53:42;17.73;67.66
75372;HTU21D;63956;52.006;5.878;2022-10-31T09:56:19;17.76;67.14
75372;HTU21D;63956;52.006;5.878;2022-10-31T09:58:52;17.75;67.45
75372;HTU21D;63956;52.006;5.878;2022-10-31T10:01:37;17.78;67.72
75372;HTU21D;63956;52.006;5.878;2022-10-31T10:04:24;17.82;67.61
75372;HTU21D;63956;52.006;5.878;2022-10-31T10:07:12;17.84;67.48
75372;HTU21D;63956;52.006;5.878;2022-10-31T10:09:45;17.89;67.58
75372;HTU21D;63956;52.006;5.878;2022-10-31T10:12:28;17.91;67.33
75372;HTU21D;63956;52.006;5.878;2022-10-31T10:15:26;17.97;67.45
75372;HTU21D;63956;52.006;5.878;2022-10-31T10:18:03;18.03;67.24
75372;HTU21D;63956;52.006;5.878;2022-10-31T10:20:40;18.06;67.44
75372;HTU21D;63956;52.006;5.878;2022-10-31T10:23:27;18.11;67.38
75372;HTU21D;63956;52.006;5.878;2022-10-31T10:26:06;18.13;67.43
75372;HTU21D;63956;52.006;5.878;2022-10-31T10:28:42;18.13;67.39
75372;HTU21D;63956;52.006;5.878;2022-10-31T10:31:15;18.12;67.50
75372;HTU21D;63956;52.006;5.878;2022-10-31T10:33:51;18.14;67.52
75372;HTU21D;63956;52.006;5.878;2022-10-31T10:36:29;18.15;67.46
75372;HTU21D;63956;52.006;5.878;2022-10-31T10:39:03;18.14;67.36
75372;HTU21D;63956;52.006;5.878;2022-10-31T10:41:36;18.13;67.55
75372;HTU21D;63956;52.006;5.878;2022-10-31T10:44:08;18.13;67.54
75372;HTU21D;63956;52.006;5.878;2022-10-31T10:46:42;18.13;67.57
75372;HTU21D;63956;52.006;5.878;2022-10-31T10:49:30;18.13;67.52
75372;HTU21D;63956;52.006;5.878;2022-10-31T10:52:06;18.12;67.66
75372;HTU21D;63956;52.006;5.878;2022-10-31T10:54:45;18.15;67.65
75372;HTU21D;63956;52.006;5.878;2022-10-31T11:00:21;18.33;67.24
75372;HTU21D;63956;52.006;5.878;2022-10-31T11:02:50;18.56;66.78
75372;HTU21D;63956;52.006;5.878;2022-10-31T11:05:24;18.59;66.71
75372;HTU21D;63956;52.006;5.878;2022-10-31T11:07:53;18.66;66.39
75372;HTU21D;63956;52.006;5.878;2022-10-31T11:10:23;18.76;66.62
75372;HTU21D;63956;52.006;5.878;2022-10-31T11:13:02;18.85;66.23
75372;HTU21D;63956;52.006;5.878;2022-10-31T11:15:37;18.96;66.25
75372;HTU21D;63956;52.006;5.878;2022-10-31T11:18:19;19.05;66.33
75372;HTU21D;63956;52.006;5.878;2022-10-31T11:20:52;19.14;65.85
75372;HTU21D;63956;52.006;5.878;2022-10-31T11:23:23;19.23;66.11
75372;HTU21D;63956;52.006;5.878;2022-10-31T11:25:55;19.30;65.75
75372;HTU21D;63956;52.006;5.878;2022-10-31T11:28:25;19.32;65.50
75372;HTU21D;63956;52.006;5.878;2022-10-31T11:30:59;19.28;65.56
75372;HTU21D;63956;52.006;5.878;2022-10-31T11:33:32;19.23;65.63
75372;HTU21D;63956;52.006;5.878;2022-10-31T11:38:50;19.25;65.33
75372;HTU21D;63956;52.006;5.878;2022-10-31T11:41:25;19.27;65.14
75372;HTU21D;63956;52.006;5.878;2022-10-31T11:44:01;19.25;64.88
75372;HTU21D;63956;52.006;5.878;2022-10-31T11:46:37;19.26;65.27
75372;HTU21D;63956;52.006;5.878;2022-10-31T11:49:14;19.28;65.24
75372;HTU21D;63956;52.006;5.878;2022-10-31T11:51:48;19.35;64.96
75372;HTU21D;63956;52.006;5.878;2022-10-31T11:54:21;19.38;64.82
75372;HTU21D;63956;52.006;5.878;2022-10-31T11:56:51;19.36;64.71
75372;HTU21D;63956;52.006;5.878;2022-10-31T11:59:26;19.41;64.69
75372;HTU21D;63956;52.006;5.878;2022-10-31T12:01:59;19.44;64.84
75372;HTU21D;63956;52.006;5.878;2022-10-31T12:04:35;19.46;64.58
75372;HTU21D;63956;52.006;5.878;2022-10-31T12:07:06;19.39;64.76
75372;HTU21D;63956;52.006;5.878;2022-10-31T12:09:37;19.39;64.44
75372;HTU21D;63956;52.006;5.878;2022-10-31T12:12:28;19.43;64.76
75372;HTU21D;63956;52.006;5.878;2022-10-31T12:15:19;19.51;64.59
75372;HTU21D;63956;52.006;5.878;2022-10-31T12:18:02;19.61;64.50
75372;HTU21D;63956;52.006;5.878;2022-10-31T12:20:40;19.73;64.14
75372;HTU21D;63956;52.006;5.878;2022-10-31T12:23:16;19.77;64.25
75372;HTU21D;63956;52.006;5.878;2022-10-31T12:25:51;19.74;64.25
75372;HTU21D;63956;52.006;5.878;2022-10-31T12:31:25;19.70;64.14
75372;HTU21D;63956;52.006;5.878;2022-10-31T12:34:19;19.70;64.37
75372;HTU21D;63956;52.006;5.878;2022-10-31T12:36:59;19.74;64.30
75372;HTU21D;63956;52.006;5.878;2022-10-31T12:39:37;19.79;64.30
75372;HTU21D;63956;52.006;5.878;2022-10-31T12:42:16;19.84;64.62
75372;HTU21D;63956;52.006;5.878;2022-10-31T12:45:21;19.87;64.50
75372;HTU21D;63956;52.006;5.878;2022-10-31T12:48:10;19.86;64.22
75372;HTU21D;63956;52.006;5.878;2022-10-31T12:50:58;19.94;64.18
75372;HTU21D;63956;52.006;5.878;2022-10-31T12:53:42;20.28;63.60
75372;HTU21D;63956;52.006;5.878;2022-10-31T12:56:22;20.53;63.01
75372;HTU21D;63956;52.006;5.878;2022-10-31T12:58:59;20.53;62.77
75372;HTU21D;63956;52.006;5.878;2022-10-31T13:01:32;20.45;63.03
75372;HTU21D;63956;52.006;5.878;2022-10-31T13:04:10;20.49;63.27
75372;HTU21D;63956;52.006;5.878;2022-10-31T13:06:48;20.54;62.98
75372;HTU21D;63956;52.006;5.878;2022-10-31T13:09:22;20.57;62.70
75372;HTU21D;63956;52.006;5.878;2022-10-31T13:11:58;20.61;62.79
75372;HTU21D;63956;52.006;5.878;2022-10-31T13:14:33;20.69;62.63
75372;HTU21D;63956;52.006;5.878;2022-10-31T13:17:05;20.77;62.65
75372;HTU21D;63956;52.006;5.878;2022-10-31T13:19:38;20.79;62.60
75372;HTU21D;63956;52.006;5.878;2022-10-31T13:22:12;20.75;62.47
75372;HTU21D;63956;52.006;5.878;2022-10-31T13:24:50;20.72;62.72
75372;HTU21D;63956;52.006;5.878;2022-10-31T13:27:23;20.72;62.60
75372;HTU21D;63956;52.006;5.878;2022-10-31T13:29:59;20.71;62.55
75372;HTU21D;63956;52.006;5.878;2022-10-31T13:32:37;20.69;62.92
75372;HTU21D;63956;52.006;5.878;2022-10-31T13:35:14;20.68;62.21
75372;HTU21D;63956;52.006;5.878;2022-10-31T13:37:51;20.61;62.50
75372;HTU21D;63956;52.006;5.878;2022-10-31T13:40:32;20.55;62.75
75372;HTU21D;63956;52.006;5.878;2022-10-31T13:43:08;20.48;62.76
75372;HTU21D;63956;52.006;5.878;2022-10-31T13:45:48;20.39;62.91
75372;HTU21D;63956;52.006;5.878;2022-10-31T13:48:33;20.33;62.79
75372;HTU21D;63956;52.006;5.878;2022-10-31T13:51:04;20.26;62.74
75372;HTU21D;63956;52.006;5.878;2022-10-31T13:53:44;20.24;63.07
75372;HTU21D;63956;52.006;5.878;2022-10-31T13:56:19;20.17;62.87
75372;HTU21D;63956;52.006;5.878;2022-10-31T13:59:12;20.14;62.85
75372;HTU21D;63956;52.006;5.878;2022-10-31T14:01:47;20.07;63.08
75372;HTU21D;63956;52.006;5.878;2022-10-31T14:04:19;20.04;62.95
75372;HTU21D;63956;52.006;5.878;2022-10-31T14:07:04;20.05;63.29
75372;HTU21D;63956;52.006;5.878;2022-10-31T14:09:38;20.07;63.22
75372;HTU21D;63956;52.006;5.878;2022-10-31T14:12:24;20.07;63.15
75372;HTU21D;63956;52.006;5.878;2022-10-31T14:14:57;20.04;63.31
75372;HTU21D;63956;52.006;5.878;2022-10-31T14:17:33;20.03;63.39
75372;HTU21D;63956;52.006;5.878;2022-10-31T14:29:22;19.87;63.31
75372;HTU21D;63956;52.006;5.878;2022-10-31T14:31:57;19.77;63.44
75372;HTU21D;63956;52.006;5.878;2022-10-31T14:34:28;19.71;63.66
75372;HTU21D;63956;52.006;5.878;2022-10-31T14:37:18;19.67;63.32
75372;HTU21D;63956;52.006;5.878;2022-10-31T14:40:02;19.62;63.69
75372;HTU21D;63956;52.006;5.878;2022-10-31T14:42:45;19.59;63.50
75372;HTU21D;63956;52.006;5.878;2022-10-31T14:45:26;19.57;63.89
75372;HTU21D;63956;52.006;5.878;2022-10-31T14:48:09;19.55;63.98
75372;HTU21D;63956;52.006;5.878;2022-10-31T14:50:47;19.53;63.95
75372;HTU21D;63956;52.006;5.878;2022-10-31T14:53:20;19.48;64.21
75372;HTU21D;63956;52.006;5.878;2022-10-31T14:55:52;19.43;64.08
75372;HTU21D;63956;52.006;5.878;2022-10-31T14:58:24;19.39;64.21
75372;HTU21D;63956;52.006;5.878;2022-10-31T15:00:58;19.39;64.02
75372;HTU21D;63956;52.006;5.878;2022-10-31T15:03:31;19.36;64.30
75372;HTU21D;63956;52.006;5.878;2022-10-31T15:06:05;19.31;64.40
75372;HTU21D;63956;52.006;5.878;2022-10-31T15:08:40;19.28;64.50
75372;HTU21D;63956;52.006;5.878;2022-10-31T15:11:10;19.27;64.56
75372;HTU21D;63956;52.006;5.878;2022-10-31T15:13:45;19.26;64.65
75372;HTU21D;63956;52.006;5.878;2022-10-31T15:16:20;19.24;64.77
75372;HTU21D;63956;52.006;5.878;2022-10-31T15:18:52;19.21;64.97
75372;HTU21D;63956;52.006;5.878;2022-10-31T15:21:24;19.17;64.73
75372;HTU21D;63956;52.006;5.878;2022-10-31T15:23:55;19.12;64.84
75372;HTU21D;63956;52.006;5.878;2022-10-31T15:26:29;19.09;64.95
75372;HTU21D;63956;52.006;5.878;2022-10-31T15:29:01;19.03;65.31
75372;HTU21D;63956;52.006;5.878;2022-10-31T15:31:33;18.98;65.26
75372;HTU21D;63956;52.006;5.878;2022-10-31T15:34:06;18.93;65.43
75372;HTU21D;63956;52.006;5.878;2022-10-31T15:36:36;18.89;65.27
75372;HTU21D;63956;52.006;5.878;2022-10-31T15:39:05;18.85;65.48
75372;HTU21D;63956;52.006;5.878;2022-10-31T15:41:36;18.84;65.54
75372;HTU21D;63956;52.006;5.878;2022-10-31T15:44:14;18.81;65.69
75372;HTU21D;63956;52.006;5.878;2022-10-31T15:46:52;18.81;65.70
75372;HTU21D;63956;52.006;5.878;2022-10-31T15:49:31;18.80;65.74
75372;HTU21D;63956;52.006;5.878;2022-10-31T15:52:07;18.79;65.75
75372;HTU21D;63956;52.006;5.878;2022-10-31T15:54:49;18.78;65.75
75372;HTU21D;63956;52.006;5.878;2022-10-31T15:57:20;18.72;65.94
75372;HTU21D;63956;52.006;5.878;2022-10-31T15:59:49;18.68;66.07
75372;HTU21D;63956;52.006;5.878;2022-10-31T16:02:23;18.65;66.17
75372;HTU21D;63956;52.006;5.878;2022-10-31T16:04:54;18.56;66.32
75372;HTU21D;63956;52.006;5.878;2022-10-31T16:07:25;18.51;66.36
75372;HTU21D;63956;52.006;5.878;2022-10-31T16:09:56;18.48;66.46
75372;HTU21D;63956;52.006;5.878;2022-10-31T16:12:35;18.44;66.56
75372;HTU21D;63956;52.006;5.878;2022-10-31T16:15:12;18.40;66.69
75372;HTU21D;63956;52.006;5.878;2022-10-31T16:17:46;18.40;66.70
75372;HTU21D;63956;52.006;5.878;2022-10-31T16:20:19;18.37;66.69
75372;HTU21D;63956;52.006;5.878;2022-10-31T16:22:52;18.34;66.76
75372;HTU21D;63956;52.006;5.878;2022-10-31T16:25:25;18.35;66.86
75372;HTU21D;63956;52.006;5.878;2022-10-31T16:27:57;18.35;66.85
75372;HTU21D;63956;52.006;5.878;2022-10-31T16:30:30;18.33;66.87
75372;HTU21D;63956;52.006;5.878;2022-10-31T16:33:21;18.30;66.93
75372;HTU21D;63956;52.006;5.878;2022-10-31T16:35:51;18.29;66.96